createdAt,value
2017-04-29T00:01:32.939Z,19.36
2017-04-29T00:04:04.076Z,19.50
2017-04-29T00:06:34.566Z,20.14
2017-04-29T00:09:04.389Z,19.70
2017-04-29T00:11:35.779Z,21.10
2017-04-29T00:14:06.553Z,21.00
2017-04-29T00:16:37.370Z,21.46
2017-04-29T00:19:08.091Z,21.74
2017-04-29T00:21:38.811Z,24.14
2017-04-29T00:24:09.659Z,21.70
2017-04-29T00:26:40.322Z,23.98
2017-04-29T00:29:10.501Z,22.42
2017-04-29T00:31:41.003Z,24.54
2017-04-29T00:34:11.741Z,22.70
2017-04-29T00:36:42.620Z,21.96
2017-04-29T00:39:13.454Z,22.76
2017-04-29T00:41:43.385Z,22.62
2017-04-29T00:44:14.211Z,21.68
2017-04-29T00:46:44.736Z,23.46
2017-04-29T00:49:15.394Z,24.30
2017-04-29T00:51:46.354Z,21.50
2017-04-29T00:54:17.205Z,22.50
2017-04-29T00:56:48.079Z,23.82
2017-04-29T00:59:18.740Z,21.92
2017-04-29T01:01:49.648Z,22.60
2017-04-29T01:04:20.295Z,21.14
2017-04-29T01:06:50.996Z,26.02
2017-04-29T01:09:21.830Z,23.16
2017-04-29T01:11:52.978Z,23.44
2017-04-29T01:14:23.444Z,23.74
2017-04-29T01:16:55.297Z,23.74
2017-04-29T01:19:26.334Z,24.08
2017-04-29T01:21:57.011Z,24.82
2017-04-29T01:24:27.792Z,22.12
2017-04-29T01:26:58.750Z,25.26
2017-04-29T01:29:30.697Z,23.16
2017-04-29T01:32:01.751Z,23.48
2017-04-29T01:34:32.742Z,23.76
2017-04-29T01:37:03.734Z,23.76
2017-04-29T01:39:34.529Z,25.26
2017-04-29T01:42:05.239Z,25.42
2017-04-29T01:44:36.136Z,26.12
2017-04-29T01:47:07.517Z,25.14
2017-04-29T01:49:38.485Z,25.90
2017-04-29T01:52:09.691Z,26.38
2017-04-29T01:54:40.754Z,25.10
2017-04-29T01:57:11.782Z,25.50
2017-04-29T01:59:42.444Z,24.36
2017-04-29T02:02:12.702Z,26.44
2017-04-29T02:04:43.455Z,25.92
2017-04-29T02:07:13.780Z,24.88
2017-04-29T02:09:44.638Z,26.16
2017-04-29T02:12:15.490Z,26.50
2017-04-29T02:14:46.425Z,27.06
2017-04-29T02:17:17.287Z,29.00
2017-04-29T02:19:48.212Z,26.86
2017-04-29T02:22:19.749Z,31.32
2017-04-29T02:24:50.272Z,27.58
2017-04-29T02:27:20.907Z,26.74
2017-04-29T02:29:51.865Z,28.54
2017-04-29T02:32:22.736Z,29.46
2017-04-29T02:34:53.944Z,25.22
2017-04-29T02:37:24.976Z,27.36
2017-04-29T02:39:56.066Z,29.22
2017-04-29T02:42:27.086Z,28.42
2017-04-29T02:44:57.990Z,27.06
2017-04-29T02:47:28.665Z,29.10
2017-04-29T02:49:59.709Z,26.10
2017-04-29T02:52:31.050Z,28.12
2017-04-29T02:55:01.761Z,26.82
2017-04-29T02:57:32.789Z,28.40
2017-04-29T03:00:03.638Z,28.06
2017-04-29T03:02:34.306Z,25.92
2017-04-29T03:05:05.160Z,28.42
2017-04-29T03:07:35.650Z,27.78
2017-04-29T03:10:06.068Z,28.70
2017-04-29T03:12:37.775Z,27.86
2017-04-29T03:15:08.497Z,28.04
2017-04-29T03:17:39.186Z,30.46
2017-04-29T03:20:09.774Z,28.96
2017-04-29T03:22:40.710Z,26.66
2017-04-29T03:25:11.443Z,26.54
2017-04-29T03:27:42.279Z,28.90
2017-04-29T03:30:13.219Z,28.28
2017-04-29T03:32:44.187Z,26.66
2017-04-29T03:35:15.156Z,27.60
2017-04-29T03:37:46.031Z,25.82
2017-04-29T03:40:16.960Z,27.84
2017-04-29T03:42:47.909Z,27.28
2017-04-29T03:45:18.573Z,27.78
2017-04-29T03:47:49.578Z,26.66
2017-04-29T03:50:20.606Z,28.16
2017-04-29T03:52:51.555Z,25.68
2017-04-29T03:55:22.688Z,31.26
2017-04-29T03:57:53.635Z,29.80
2017-04-29T04:00:24.852Z,29.04
2017-04-29T04:02:55.788Z,27.00
2017-04-29T04:05:26.842Z,30.32
2017-04-29T04:07:57.570Z,31.00
2017-04-29T04:10:28.025Z,27.06
2017-04-29T04:12:58.937Z,30.04
2017-04-29T04:15:29.823Z,31.60
2017-04-29T04:18:00.648Z,29.84
2017-04-29T04:20:31.584Z,31.30
2017-04-29T04:23:02.404Z,28.64
2017-04-29T04:25:33.289Z,31.68
2017-04-29T04:28:04.112Z,34.40
2017-04-29T04:30:35.002Z,30.94
2017-04-29T04:33:05.848Z,30.70
2017-04-29T04:35:36.629Z,33.44
2017-04-29T04:38:07.469Z,32.10
2017-04-29T04:40:38.150Z,29.02
2017-04-29T04:43:08.986Z,28.90
2017-04-29T04:45:39.885Z,26.42
2017-04-29T04:48:10.795Z,31.62
2017-04-29T04:50:41.606Z,32.14
2017-04-29T04:53:12.494Z,26.16
2017-04-29T04:55:43.318Z,27.16
2017-04-29T04:58:14.185Z,28.40
2017-04-29T05:00:44.752Z,32.78
2017-04-29T05:03:15.425Z,29.70
2017-04-29T05:05:46.281Z,27.50
2017-04-29T05:08:17.343Z,30.32
2017-04-29T05:10:48.305Z,29.18
2017-04-29T05:13:19.193Z,26.38
2017-04-29T05:15:50.066Z,29.18
2017-04-29T05:18:20.924Z,32.22
2017-04-29T05:20:51.801Z,28.44
2017-04-29T05:23:22.248Z,28.20
2017-04-29T05:25:53.201Z,26.56
2017-04-29T05:28:24.083Z,29.00
2017-04-29T05:30:54.953Z,27.62
2017-04-29T05:33:27.633Z,24.92
2017-04-29T05:35:59.819Z,27.12
2017-04-29T05:38:31.429Z,25.36
2017-04-29T05:41:03.198Z,24.14
2017-04-29T05:43:37.344Z,24.94
2017-04-29T05:46:10.189Z,26.64
2017-04-29T05:48:43.087Z,25.78
2017-04-29T05:51:13.961Z,24.88
2017-04-29T05:53:45.536Z,26.36
2017-04-29T05:56:16.081Z,23.90
2017-04-29T05:58:47.026Z,25.82
2017-04-29T06:01:17.871Z,27.06
2017-04-29T06:03:48.822Z,26.32
2017-04-29T06:06:19.642Z,25.78
2017-04-29T06:08:50.326Z,25.66
2017-04-29T06:11:21.259Z,28.36
2017-04-29T06:13:52.323Z,25.82
2017-04-29T06:16:23.198Z,26.06
2017-04-29T06:18:54.202Z,26.62
2017-04-29T06:21:25.076Z,25.40
2017-04-29T06:23:56.591Z,26.16
2017-04-29T06:26:27.489Z,25.70
2017-04-29T06:28:58.336Z,26.64
2017-04-29T06:31:29.012Z,26.16
2017-04-29T06:34:01.655Z,24.02
2017-04-29T06:36:33.187Z,26.64
2017-04-29T06:39:03.656Z,27.58
2017-04-29T06:41:34.677Z,26.46
2017-04-29T06:44:05.664Z,22.24
2017-04-29T06:46:36.572Z,23.44
2017-04-29T06:49:08.049Z,24.74
2017-04-29T06:51:39.197Z,22.06
2017-04-29T06:54:10.192Z,22.68
2017-04-29T06:56:41.256Z,23.76
2017-04-29T06:59:12.114Z,20.92
2017-04-29T07:01:42.950Z,21.92
2017-04-29T07:04:13.842Z,22.40
2017-04-29T07:06:44.678Z,20.90
2017-04-29T07:09:15.537Z,23.62
2017-04-29T07:11:47.120Z,17.36
2017-04-29T07:14:17.951Z,18.10
2017-04-29T07:16:48.882Z,19.16
2017-04-29T07:19:19.859Z,17.98
2017-04-29T07:21:50.791Z,19.30
2017-04-29T07:24:21.713Z,17.02
2017-04-29T07:26:52.689Z,13.52
2017-04-29T07:29:23.631Z,13.06
2017-04-29T07:31:54.667Z,11.08
2017-04-29T07:34:25.533Z,11.62
2017-04-29T07:36:56.617Z,10.96
2017-04-29T07:39:27.620Z,17.36
2017-04-29T07:41:58.649Z,12.86
2017-04-29T07:44:29.686Z,35.18
2017-04-29T07:47:00.588Z,13.44
2017-04-29T07:49:31.588Z,13.72
2017-04-29T07:52:02.616Z,12.88
2017-04-29T07:54:33.590Z,14.74
2017-04-29T07:57:04.518Z,17.02
2017-04-29T07:59:35.497Z,14.76
2017-04-29T08:02:06.213Z,13.34
2017-04-29T08:04:37.341Z,11.98
2017-04-29T08:07:09.039Z,14.50
2017-04-29T08:09:39.921Z,11.34
2017-04-29T08:12:10.938Z,10.22
2017-04-29T08:14:41.517Z,7.48
2017-04-29T08:17:12.238Z,9.30
2017-04-29T08:19:43.265Z,7.88
2017-04-29T08:22:13.998Z,9.00
2017-04-29T08:24:44.995Z,7.70
2017-04-29T08:27:15.781Z,7.24
2017-04-29T08:29:46.757Z,8.44
2017-04-29T08:32:17.697Z,10.34
2017-04-29T08:34:48.626Z,7.42
2017-04-29T08:37:19.799Z,9.12
2017-04-29T08:39:50.361Z,9.08
2017-04-29T08:42:21.362Z,11.14
2017-04-29T08:44:52.441Z,9.56
2017-04-29T08:47:22.913Z,13.02
2017-04-29T08:49:53.828Z,10.38
2017-04-29T08:52:24.462Z,9.56
2017-04-29T08:54:55.195Z,11.12
2017-04-29T08:57:26.136Z,13.34
2017-04-29T08:59:57.290Z,14.88
2017-04-29T09:02:27.814Z,14.40
2017-04-29T09:04:58.641Z,12.66
2017-04-29T09:07:29.373Z,13.16
2017-04-29T09:10:00.137Z,11.60
2017-04-29T09:12:31.149Z,13.94
2017-04-29T09:15:01.890Z,12.52
2017-04-29T09:17:32.830Z,12.34
2017-04-29T09:20:03.554Z,13.40
2017-04-29T09:22:34.509Z,12.62
2017-04-29T09:25:05.486Z,13.12
2017-04-29T09:27:36.471Z,11.12
2017-04-29T09:30:07.716Z,13.84
2017-04-29T09:32:38.443Z,10.94
2017-04-29T09:35:09.384Z,12.10
2017-04-29T09:37:41.358Z,10.72
2017-04-29T09:40:12.360Z,11.40
2017-04-29T09:42:43.222Z,11.44
2017-04-29T09:45:14.146Z,11.88
2017-04-29T09:47:44.858Z,13.12
2017-04-29T09:50:15.937Z,12.02
2017-04-29T09:52:46.709Z,10.48
2017-04-29T09:55:17.702Z,12.80
2017-04-29T09:57:48.678Z,12.82
2017-04-29T10:00:19.784Z,11.08
2017-04-29T10:02:50.437Z,12.96
2017-04-29T10:05:21.368Z,12.22
2017-04-29T10:07:52.174Z,10.70
2017-04-29T10:10:22.865Z,12.68
2017-04-29T10:12:53.747Z,11.58
2017-04-29T10:15:24.698Z,10.20
2017-04-29T10:17:55.549Z,11.46
2017-04-29T10:20:26.595Z,9.18
2017-04-29T10:22:57.518Z,9.04
2017-04-29T10:25:28.416Z,7.60
2017-04-29T10:27:59.299Z,8.54
2017-04-29T10:30:30.048Z,9.58
2017-04-29T10:33:01.287Z,6.58
2017-04-29T10:35:32.097Z,7.34
2017-04-29T10:38:03.052Z,8.22
2017-04-29T10:40:33.858Z,6.50
2017-04-29T10:43:04.743Z,7.54
2017-04-29T10:45:35.764Z,7.58
2017-04-29T10:48:06.724Z,6.86
2017-04-29T10:50:37.470Z,6.40
2017-04-29T10:53:08.960Z,6.46
2017-04-29T10:55:41.038Z,5.70
2017-04-29T10:58:11.994Z,5.96
2017-04-29T11:00:42.860Z,8.82
2017-04-29T11:03:13.715Z,5.70
2017-04-29T11:05:44.631Z,6.56
2017-04-29T11:08:15.587Z,6.10
2017-04-29T11:10:46.447Z,5.94
2017-04-29T11:13:17.352Z,5.26
2017-04-29T11:15:48.243Z,5.46
2017-04-29T11:18:19.334Z,5.70
2017-04-29T11:20:50.236Z,5.78
2017-04-29T11:23:21.123Z,5.18
2017-04-29T11:25:51.931Z,5.70
2017-04-29T11:28:22.834Z,3.80
2017-04-29T11:30:53.782Z,5.38
2017-04-29T11:33:24.619Z,4.26
2017-04-29T11:35:55.555Z,4.70
2017-04-29T11:38:26.405Z,6.34
2017-04-29T11:40:57.533Z,6.34
2017-04-29T11:43:28.490Z,5.50
2017-04-29T11:45:59.336Z,5.04
2017-04-29T11:48:30.262Z,3.54
2017-04-29T11:51:00.997Z,5.72
2017-04-29T11:53:31.897Z,4.30
2017-04-29T11:56:02.773Z,3.90
2017-04-29T11:58:33.062Z,4.18
2017-04-29T12:01:03.941Z,7.16
2017-04-29T12:03:34.980Z,3.94
2017-04-29T12:06:06.025Z,6.28
2017-04-29T12:08:37.100Z,4.68
2017-04-29T12:11:08.090Z,5.24
2017-04-29T12:13:39.158Z,4.36
2017-04-29T12:16:10.174Z,3.36
2017-04-29T12:18:41.021Z,7.86
2017-04-29T12:21:12.151Z,4.86
2017-04-29T12:23:42.894Z,3.94
2017-04-29T12:26:13.616Z,5.92
2017-04-29T12:28:44.513Z,4.32
2017-04-29T12:31:15.402Z,5.24
2017-04-29T12:33:46.380Z,5.96
2017-04-29T12:36:17.473Z,4.08
2017-04-29T12:38:48.696Z,3.90
2017-04-29T12:41:19.512Z,4.46
2017-04-29T12:43:50.370Z,5.58
2017-04-29T12:46:21.510Z,3.02
2017-04-29T12:48:52.254Z,3.04
2017-04-29T12:51:23.284Z,6.94
2017-04-29T12:53:54.187Z,4.42
2017-04-29T12:56:25.117Z,4.60
2017-04-29T12:58:56.056Z,3.50
2017-04-29T13:01:27.007Z,4.64
2017-04-29T13:03:57.938Z,3.48
2017-04-29T13:06:28.811Z,3.10
2017-04-29T13:08:59.648Z,3.58
2017-04-29T13:11:30.325Z,2.58
2017-04-29T13:14:01.232Z,3.10
2017-04-29T13:16:32.274Z,5.10
2017-04-29T13:19:03.296Z,2.90
2017-04-29T13:21:34.135Z,3.00
2017-04-29T13:24:05.123Z,3.40
2017-04-29T13:26:35.873Z,3.66
2017-04-29T13:29:06.748Z,3.66
2017-04-29T13:31:37.888Z,3.90
2017-04-29T13:34:08.629Z,2.80
2017-04-29T13:36:39.605Z,3.56
2017-04-29T13:39:10.586Z,2.80
2017-04-29T13:41:41.687Z,4.64
2017-04-29T13:44:12.699Z,9.16
2017-04-29T13:46:43.709Z,2.88
2017-04-29T13:49:14.682Z,4.96
2017-04-29T13:51:45.606Z,2.92
2017-04-29T13:54:16.649Z,5.56
2017-04-29T13:56:47.284Z,3.20
2017-04-29T13:59:18.387Z,5.62
2017-04-29T14:01:49.327Z,2.94
2017-04-29T14:04:20.274Z,2.32
2017-04-29T14:06:51.345Z,2.82
2017-04-29T14:09:22.390Z,3.24
2017-04-29T14:11:53.420Z,3.30
2017-04-29T14:14:24.301Z,2.76
2017-04-29T14:16:54.873Z,3.06
2017-04-29T14:19:25.762Z,2.08
2017-04-29T14:21:56.759Z,2.34
2017-04-29T14:24:27.813Z,4.28
2017-04-29T14:26:58.918Z,2.46
2017-04-29T14:29:29.698Z,3.66
2017-04-29T14:32:00.624Z,2.68
2017-04-29T14:34:32.527Z,6.66
2017-04-29T14:37:03.531Z,4.06
2017-04-29T14:39:34.731Z,3.74
2017-04-29T14:42:05.709Z,2.48
2017-04-29T14:44:36.761Z,2.44
2017-04-29T14:47:07.633Z,2.06
2017-04-29T14:49:38.677Z,2.40
2017-04-29T14:52:09.618Z,2.48
2017-04-29T14:54:40.449Z,4.82
2017-04-29T14:57:11.411Z,4.42
2017-04-29T14:59:42.287Z,2.98
2017-04-29T15:02:13.157Z,2.16
2017-04-29T15:04:44.043Z,2.42
2017-04-29T15:07:14.709Z,3.80
2017-04-29T15:09:45.614Z,2.50
2017-04-29T15:12:16.234Z,3.30
2017-04-29T15:14:47.174Z,3.02
2017-04-29T15:17:18.530Z,2.56
2017-04-29T15:19:49.572Z,2.52
2017-04-29T15:22:20.589Z,2.94
2017-04-29T15:24:51.594Z,5.00
2017-04-29T15:27:22.292Z,2.24
2017-04-29T15:29:53.311Z,3.94
2017-04-29T15:32:24.278Z,2.50
2017-04-29T15:34:55.075Z,2.42
2017-04-29T15:37:25.636Z,2.18
2017-04-29T15:39:56.787Z,2.08
2017-04-29T15:42:27.798Z,2.40
2017-04-29T15:44:58.734Z,2.70
2017-04-29T15:47:29.730Z,1.64
2017-04-29T15:50:00.615Z,2.40
2017-04-29T15:52:31.582Z,3.44
2017-04-29T15:55:02.430Z,2.20
2017-04-29T15:57:32.951Z,3.50
2017-04-29T16:00:03.874Z,1.78
2017-04-29T16:02:34.794Z,2.74
2017-04-29T16:05:05.735Z,3.02
2017-04-29T16:07:36.964Z,2.68
2017-04-29T16:10:07.906Z,1.72
2017-04-29T16:12:39.610Z,1.78
2017-04-29T16:15:10.837Z,2.58
2017-04-29T16:17:41.757Z,2.20
2017-04-29T16:20:12.463Z,2.00
2017-04-29T16:22:43.344Z,1.84
2017-04-29T16:25:14.596Z,2.38
2017-04-29T16:27:45.516Z,2.12
2017-04-29T16:30:16.449Z,1.54
2017-04-29T16:32:47.335Z,1.50
2017-04-29T16:35:18.279Z,1.20
2017-04-29T16:37:49.392Z,2.32
2017-04-29T16:40:20.325Z,1.56
2017-04-29T16:42:51.374Z,3.84
2017-04-29T16:45:22.451Z,2.44
2017-04-29T16:47:53.367Z,2.14
2017-04-29T16:50:24.189Z,2.24
2017-04-29T16:52:54.908Z,1.60
2017-04-29T16:55:25.742Z,2.30
2017-04-29T16:57:56.701Z,1.94
2017-04-29T17:00:27.548Z,1.76
2017-04-29T17:02:58.153Z,1.52
2017-04-29T17:05:29.016Z,1.56
2017-04-29T17:07:59.894Z,1.40
2017-04-29T17:10:30.562Z,1.30
2017-04-29T17:13:01.437Z,1.86
2017-04-29T17:15:32.325Z,1.62
2017-04-29T17:18:03.147Z,2.58
2017-04-29T17:20:33.868Z,2.92
2017-04-29T17:23:04.779Z,3.36
2017-04-29T17:25:35.662Z,2.94
2017-04-29T17:28:06.141Z,2.70
2017-04-29T17:30:37.152Z,2.90
2017-04-29T17:33:08.040Z,2.90
2017-04-29T17:35:38.859Z,3.00
2017-04-29T17:38:09.823Z,2.42
2017-04-29T17:40:40.731Z,1.72
2017-04-29T17:43:11.616Z,3.02
2017-04-29T17:45:42.481Z,3.76
2017-04-29T17:48:13.161Z,2.90
2017-04-29T17:50:44.046Z,1.98
2017-04-29T17:53:14.904Z,3.20
2017-04-29T17:55:45.384Z,2.52
2017-04-29T17:58:16.228Z,2.80
2017-04-29T18:00:47.149Z,4.26
2017-04-29T18:03:17.778Z,3.86
2017-04-29T18:05:48.673Z,3.18
2017-04-29T18:08:19.380Z,4.52
2017-04-29T18:10:50.264Z,2.82
2017-04-29T18:13:21.115Z,3.30
2017-04-29T18:15:51.812Z,6.66
2017-04-29T18:18:22.703Z,6.34
2017-04-29T18:20:53.526Z,2.88
2017-04-29T18:23:24.417Z,6.06
2017-04-29T18:25:55.040Z,5.12
2017-04-29T18:28:25.913Z,5.64
2017-04-29T18:30:56.741Z,7.02
2017-04-29T18:33:27.634Z,5.08
2017-04-29T18:35:58.538Z,6.06
2017-04-29T18:38:29.393Z,6.02
2017-04-29T18:41:00.124Z,7.74
2017-04-29T18:43:30.778Z,10.74
2017-04-29T18:46:01.704Z,5.98
2017-04-29T18:48:32.558Z,6.66
2017-04-29T18:51:03.440Z,4.32
2017-04-29T18:53:34.310Z,3.74
2017-04-29T18:56:05.109Z,3.74
2017-04-29T18:58:35.632Z,3.64
2017-04-29T19:01:06.562Z,5.08
2017-04-29T19:03:37.242Z,4.38
2017-04-29T19:06:08.114Z,4.54
2017-04-29T19:08:38.792Z,4.62
2017-04-29T19:11:09.752Z,4.96
2017-04-29T19:13:40.602Z,4.54
2017-04-29T19:16:11.513Z,4.94
2017-04-29T19:18:42.331Z,3.90
2017-04-29T19:21:13.114Z,4.30
2017-04-29T19:23:43.954Z,5.36
2017-04-29T19:26:14.823Z,3.62
2017-04-29T19:28:45.637Z,4.64
2017-04-29T19:31:16.512Z,6.08
2017-04-29T19:33:47.333Z,7.62
2017-04-29T19:36:18.039Z,4.94
2017-04-29T19:38:48.660Z,7.08
2017-04-29T19:41:19.257Z,9.54
2017-04-29T19:43:50.045Z,7.62
2017-04-29T19:46:20.726Z,12.80
2017-04-29T19:48:51.539Z,10.56
2017-04-29T19:51:22.406Z,8.58
2017-04-29T19:53:53.307Z,9.18
2017-04-29T19:56:24.172Z,10.28
2017-04-29T19:58:55.083Z,10.74
2017-04-29T20:01:25.967Z,9.70
2017-04-29T20:03:56.853Z,7.34
2017-04-29T20:06:27.767Z,11.72
2017-04-29T20:08:58.620Z,6.74
2017-04-29T20:11:29.419Z,6.08
2017-04-29T20:14:00.321Z,6.76
2017-04-29T20:16:31.138Z,8.64
2017-04-29T20:19:02.015Z,6.90
2017-04-29T20:21:32.851Z,8.14
2017-04-29T20:24:03.552Z,8.58
2017-04-29T20:26:34.181Z,7.92
2017-04-29T20:29:04.992Z,8.44
2017-04-29T20:31:35.812Z,7.66
2017-04-29T20:34:06.488Z,8.42
2017-04-29T20:36:37.368Z,9.78
2017-04-29T20:39:08.274Z,9.00
2017-04-29T20:41:40.227Z,11.96
2017-04-29T20:44:11.079Z,9.76
2017-04-29T20:46:42.750Z,7.82
2017-04-29T20:49:13.554Z,9.64
2017-04-29T20:51:44.413Z,8.64
2017-04-29T20:54:15.128Z,8.40
2017-04-29T20:56:46.105Z,8.38
2017-04-29T20:59:17.018Z,7.46
2017-04-29T21:01:48.058Z,8.12
2017-04-29T21:04:18.877Z,10.10
2017-04-29T21:06:49.764Z,7.96
2017-04-29T21:09:20.734Z,8.38
2017-04-29T21:11:51.697Z,8.64
2017-04-29T21:14:22.598Z,11.22
2017-04-29T21:16:53.489Z,10.62
2017-04-29T21:19:24.637Z,8.84
2017-04-29T21:21:55.780Z,9.46
2017-04-29T21:24:26.875Z,7.74
2017-04-29T21:26:57.866Z,6.10
2017-04-29T21:29:28.884Z,6.92
2017-04-29T21:31:59.422Z,7.16
2017-04-29T21:34:30.146Z,6.68
2017-04-29T21:37:00.893Z,7.68
2017-04-29T21:39:31.871Z,7.22
2017-04-29T21:42:02.929Z,6.02
2017-04-29T21:44:33.626Z,5.70
2017-04-29T21:47:04.695Z,6.42
2017-04-29T21:49:35.582Z,8.08
2017-04-29T21:52:07.084Z,5.94
2017-04-29T21:54:37.980Z,7.12
2017-04-29T21:57:08.835Z,5.64
2017-04-29T21:59:39.725Z,5.42
2017-04-29T22:02:10.276Z,8.60
2017-04-29T22:04:41.192Z,6.62
2017-04-29T22:07:12.151Z,6.52
2017-04-29T22:09:42.969Z,9.64
2017-04-29T22:12:13.880Z,6.78
2017-04-29T22:14:44.657Z,6.50
2017-04-29T22:17:15.437Z,6.42
2017-04-29T22:19:46.298Z,8.08
2017-04-29T22:22:17.070Z,6.44
2017-04-29T22:24:48.156Z,8.46
2017-04-29T22:27:18.988Z,9.16
2017-04-29T22:29:49.711Z,6.88
2017-04-29T22:32:20.453Z,6.78
2017-04-29T22:34:51.492Z,5.72
2017-04-29T22:37:22.401Z,6.02
2017-04-29T22:39:53.372Z,5.42
2017-04-29T22:42:24.409Z,5.52
2017-04-29T22:44:55.570Z,6.54
2017-04-29T22:47:26.227Z,5.38
2017-04-29T22:49:56.654Z,5.40
2017-04-29T22:52:27.546Z,6.30
2017-04-29T22:54:58.445Z,5.80
2017-04-29T22:57:29.331Z,5.46
2017-04-29T23:00:00.433Z,5.96
2017-04-29T23:02:31.113Z,5.96
2017-04-29T23:05:01.497Z,5.68
2017-04-29T23:07:33.294Z,6.46
2017-04-29T23:10:04.288Z,6.22
2017-04-29T23:12:35.939Z,6.12
2017-04-29T23:15:06.977Z,6.28
2017-04-29T23:17:37.620Z,8.40
2017-04-29T23:20:08.233Z,11.84
2017-04-29T23:22:39.226Z,6.86
2017-04-29T23:25:09.565Z,5.78
2017-04-29T23:27:40.537Z,7.22
2017-04-29T23:30:11.311Z,5.66
2017-04-29T23:32:42.086Z,6.34
2017-04-29T23:35:13.657Z,6.34
2017-04-29T23:37:44.391Z,6.08
2017-04-29T23:40:15.552Z,9.08
2017-04-29T23:42:47.292Z,6.08
2017-04-29T23:45:17.957Z,9.32
2017-04-29T23:47:48.587Z,7.36
2017-04-29T23:50:19.624Z,5.56
2017-04-29T23:52:50.900Z,7.04
2017-04-29T23:55:21.804Z,6.14
2017-04-29T23:57:52.714Z,7.26
